Melvern, Kansas
Current Conditions -  °F | °C
As of 11:53 PM on Wednesday 28 Jan 2015 (Local Time) from KFOE Reporting Station
Clear Clear  
Wind Chill: 55°   Ceiling: Unl
Heat Index: 55°   Visibility: 10mi
Dew Point: 34°   Wind: 17mph
Humidity: 45%   Direction: 320°NW
Pressure: 29.92"   Gusts: 26mph
Location:  38.51°N, 95.64°W
Report Text: KFOE 290553Z AUTO 32015G23KT 10SM CLR 13/01 A2992 RMK AO2 PK WND 33027/0459 SLP125 T01280011 10178 20100 402610028 51046
Loading
Personal Weather Stations






























Interactive Weather Map New forecast layout! Learn more

10-Day Weather Forecast

Advertisements
Track Severe Weather on mobile